createdAt,value
2023-03-31T00:01:04.597Z,16.05
2023-03-31T00:03:34.301Z,16.15
2023-03-31T00:06:01.904Z,16.58
2023-03-31T00:08:35.465Z,15.77
2023-03-31T00:11:07.127Z,15.23
2023-03-31T00:13:35.445Z,15.40
2023-03-31T00:16:06.490Z,15.27
2023-03-31T00:18:34.564Z,15.80
2023-03-31T00:21:14.580Z,14.98
2023-03-31T00:23:42.300Z,15.40
2023-03-31T00:26:09.795Z,16.13
2023-03-31T00:28:37.092Z,16.52
2023-03-31T00:31:04.465Z,15.55
2023-03-31T00:33:31.816Z,16.38
2023-03-31T00:36:02.136Z,15.80
2023-03-31T00:38:30.216Z,16.38
2023-03-31T00:40:58.143Z,15.88
2023-03-31T00:43:33.184Z,16.38
2023-03-31T00:46:15.484Z,16.30
2023-03-31T00:48:57.733Z,16.95
2023-03-31T00:51:31.970Z,16.42
2023-03-31T00:54:06.100Z,16.45
2023-03-31T00:56:37.689Z,16.92
2023-03-31T00:59:08.819Z,16.75
2023-03-31T01:01:39.492Z,16.70
2023-03-31T01:04:09.727Z,17.08
2023-03-31T01:06:52.360Z,17.10
2023-03-31T01:09:20.234Z,17.08
2023-03-31T01:11:48.526Z,17.35
2023-03-31T01:14:16.977Z,17.83
2023-03-31T01:16:45.577Z,17.75
2023-03-31T01:19:36.525Z,16.92
2023-03-31T01:22:28.636Z,17.58
2023-03-31T01:25:14.421Z,16.77
2023-03-31T01:28:12.923Z,17.33
2023-03-31T01:31:16.768Z,17.33
2023-03-31T01:34:21.608Z,16.70
2023-03-31T01:37:29.891Z,17.17
2023-03-31T01:40:15.975Z,17.88
2023-03-31T01:42:56.958Z,17.45
2023-03-31T01:45:52.142Z,17.38
2023-03-31T01:48:30.177Z,18.13
2023-03-31T01:51:17.825Z,18.88
2023-03-31T01:53:55.568Z,19.08
2023-03-31T01:56:33.098Z,18.95
2023-03-31T01:59:06.545Z,17.80
2023-03-31T02:01:39.784Z,18.30
2023-03-31T02:04:22.124Z,19.20
2023-03-31T02:06:58.118Z,18.48
2023-03-31T02:09:33.461Z,19.30
2023-03-31T02:12:08.979Z,18.73
2023-03-31T02:14:43.675Z,19.77
2023-03-31T02:17:18.146Z,18.52
2023-03-31T02:19:51.754Z,18.17
2023-03-31T02:22:22.050Z,19.25
2023-03-31T02:24:52.418Z,18.23
2023-03-31T02:27:26.666Z,19.52
2023-03-31T02:29:55.515Z,19.48
2023-03-31T02:32:33.024Z,20.02
2023-03-31T02:35:01.339Z,19.60
2023-03-31T02:37:30.516Z,20.73
2023-03-31T02:40:01.483Z,19.35
2023-03-31T02:42:29.317Z,19.20
2023-03-31T02:45:06.108Z,20.30
2023-03-31T02:47:34.605Z,18.58
2023-03-31T02:50:04.079Z,18.77
2023-03-31T02:52:52.030Z,19.92
2023-03-31T02:55:23.869Z,18.75
2023-03-31T02:58:05.543Z,18.55
2023-03-31T03:00:55.308Z,19.58
2023-03-31T03:03:29.304Z,19.00
2023-03-31T03:06:23.674Z,18.60
2023-03-31T03:12:08.824Z,17.65
2023-03-31T03:14:42.046Z,18.17
2023-03-31T03:17:21.414Z,18.77
2023-03-31T03:19:58.770Z,18.67
2023-03-31T03:22:26.078Z,18.38
2023-03-31T03:24:53.598Z,19.00
2023-03-31T03:27:24.289Z,18.55
2023-03-31T03:29:51.757Z,19.05
2023-03-31T03:32:19.075Z,18.80
2023-03-31T03:34:46.432Z,17.75
2023-03-31T03:37:13.826Z,18.20
2023-03-31T03:39:41.222Z,17.85
2023-03-31T03:42:08.555Z,17.10
2023-03-31T03:44:35.907Z,18.17
2023-03-31T03:47:03.507Z,16.55
2023-03-31T03:49:30.854Z,18.35
2023-03-31T03:51:58.120Z,17.85
2023-03-31T03:54:25.556Z,18.33
2023-03-31T03:56:52.992Z,17.13
2023-03-31T03:59:20.355Z,18.00
2023-03-31T04:01:47.621Z,17.33
2023-03-31T04:04:15.335Z,17.65
2023-03-31T04:06:43.416Z,16.88
2023-03-31T04:09:11.304Z,18.17
2023-03-31T04:11:38.607Z,19.10
2023-03-31T04:14:06.039Z,17.98
2023-03-31T04:16:34.513Z,18.00
2023-03-31T04:19:04.671Z,18.65
2023-03-31T04:21:34.885Z,18.25
2023-03-31T04:24:04.625Z,18.40
2023-03-31T04:26:43.683Z,18.55
2023-03-31T04:29:12.977Z,17.23
2023-03-31T04:31:44.262Z,17.10
2023-03-31T04:34:14.362Z,17.77
2023-03-31T04:36:52.278Z,18.48
2023-03-31T04:39:27.012Z,17.85
2023-03-31T04:41:54.482Z,17.67
2023-03-31T04:44:21.890Z,17.75
2023-03-31T04:46:49.509Z,17.20
2023-03-31T04:49:16.934Z,17.80
2023-03-31T04:51:44.945Z,17.60
2023-03-31T04:54:12.570Z,18.48
2023-03-31T04:56:40.020Z,18.15
2023-03-31T04:59:08.500Z,18.50
2023-03-31T05:01:36.534Z,17.63
2023-03-31T05:04:05.359Z,19.17
2023-03-31T05:06:33.035Z,19.80
2023-03-31T05:09:00.668Z,18.42
2023-03-31T05:11:29.010Z,19.40
2023-03-31T05:13:56.676Z,18.40
2023-03-31T05:16:24.093Z,18.02
2023-03-31T05:18:51.461Z,18.35
2023-03-31T05:21:20.762Z,18.35
2023-03-31T05:23:48.368Z,17.75
2023-03-31T05:26:15.965Z,19.02
2023-03-31T05:28:43.486Z,17.38
2023-03-31T05:31:13.126Z,17.27
2023-03-31T05:33:41.835Z,17.35
2023-03-31T05:36:11.848Z,16.67
2023-03-31T05:38:40.265Z,16.65
2023-03-31T05:41:09.614Z,17.42
2023-03-31T05:43:39.072Z,17.55
2023-03-31T05:46:07.098Z,17.05
2023-03-31T05:48:35.467Z,17.05
2023-03-31T05:51:03.055Z,16.58
2023-03-31T05:53:30.768Z,18.02
2023-03-31T05:56:02.968Z,17.10
2023-03-31T05:58:31.031Z,18.17
2023-03-31T06:01:02.891Z,17.67
2023-03-31T06:03:30.271Z,18.00
2023-03-31T06:05:57.679Z,19.42
2023-03-31T06:08:25.045Z,19.13
2023-03-31T06:10:52.445Z,18.52
2023-03-31T06:13:19.992Z,17.02
2023-03-31T06:15:58.287Z,17.42
2023-03-31T06:18:28.776Z,19.20
2023-03-31T06:20:56.770Z,17.25
2023-03-31T06:23:25.230Z,17.33
2023-03-31T06:25:53.450Z,17.65
2023-03-31T06:28:21.516Z,16.88
2023-03-31T06:30:48.915Z,17.80
2023-03-31T06:33:16.674Z,17.20
2023-03-31T06:35:44.111Z,18.38
2023-03-31T06:38:11.406Z,17.00
2023-03-31T06:40:38.689Z,17.17
2023-03-31T06:43:06.105Z,17.30
2023-03-31T06:45:33.468Z,19.33
2023-03-31T06:48:00.903Z,18.70
2023-03-31T06:50:28.280Z,18.30
2023-03-31T06:52:55.960Z,18.45
2023-03-31T06:55:23.404Z,17.58
2023-03-31T06:57:51.062Z,19.10
2023-03-31T07:00:21.460Z,18.30
2023-03-31T07:02:50.615Z,19.50
2023-03-31T07:05:18.566Z,18.13
2023-03-31T07:07:46.456Z,18.85
2023-03-31T07:10:13.899Z,19.52
2023-03-31T07:12:41.640Z,18.45
2023-03-31T07:15:09.407Z,18.95
2023-03-31T07:17:37.600Z,18.80
2023-03-31T07:20:10.216Z,19.08
2023-03-31T07:22:37.652Z,19.15
2023-03-31T07:25:05.579Z,18.88
2023-03-31T07:27:32.848Z,17.88
2023-03-31T07:30:00.418Z,18.52
2023-03-31T07:32:29.138Z,17.77
2023-03-31T07:34:56.754Z,18.40
2023-03-31T07:37:24.101Z,18.67
2023-03-31T07:39:51.809Z,18.08
2023-03-31T07:42:19.089Z,18.90
2023-03-31T07:44:46.497Z,20.00
2023-03-31T07:47:14.261Z,17.65
2023-03-31T07:49:41.548Z,17.75
2023-03-31T07:52:08.894Z,17.60
2023-03-31T07:54:36.298Z,18.13
2023-03-31T07:57:06.257Z,18.92
2023-03-31T07:59:34.006Z,18.42
2023-03-31T08:02:01.720Z,17.35
2023-03-31T08:04:29.299Z,18.67
2023-03-31T08:06:56.640Z,18.45
2023-03-31T08:09:24.019Z,18.83
2023-03-31T08:11:51.353Z,17.73
2023-03-31T08:14:27.160Z,18.35
2023-03-31T08:17:01.824Z,18.70
2023-03-31T08:19:29.198Z,19.23
2023-03-31T08:21:56.502Z,20.30
2023-03-31T08:24:24.011Z,19.95
2023-03-31T08:26:51.410Z,19.08
2023-03-31T08:29:18.828Z,20.25
2023-03-31T08:31:46.148Z,19.83
2023-03-31T08:34:13.744Z,19.73
2023-03-31T08:36:41.228Z,19.98
2023-03-31T08:39:08.868Z,21.27
2023-03-31T08:42:02.578Z,20.33
2023-03-31T08:44:36.914Z,19.05
2023-03-31T08:47:07.634Z,20.92
2023-03-31T08:49:45.803Z,19.83
2023-03-31T08:52:17.365Z,20.05
2023-03-31T08:54:49.432Z,21.08
2023-03-31T08:59:47.891Z,19.55
2023-03-31T09:02:18.827Z,18.75
2023-03-31T09:05:08.523Z,18.50
2023-03-31T09:07:42.643Z,17.95
2023-03-31T09:10:13.054Z,18.45
2023-03-31T09:12:51.980Z,20.15
2023-03-31T09:15:25.702Z,18.55
2023-03-31T09:17:57.986Z,19.52
2023-03-31T09:20:36.843Z,19.55
2023-03-31T09:23:32.065Z,21.45
2023-03-31T09:26:02.671Z,21.35
2023-03-31T09:28:40.099Z,20.77
2023-03-31T09:31:19.683Z,20.83
2023-03-31T09:33:51.518Z,20.83
2023-03-31T09:36:23.809Z,22.35
2023-03-31T09:38:51.622Z,22.02
2023-03-31T09:41:19.851Z,22.08
2023-03-31T09:43:49.525Z,20.33
2023-03-31T09:46:24.824Z,21.35
2023-03-31T09:49:02.330Z,21.40
2023-03-31T09:51:34.635Z,21.83
2023-03-31T09:54:12.895Z,21.92
2023-03-31T09:56:43.036Z,23.23
2023-03-31T09:59:17.622Z,23.67
2023-03-31T10:01:47.823Z,22.65
2023-03-31T10:04:24.438Z,23.55
2023-03-31T10:06:53.714Z,21.27
2023-03-31T10:09:25.027Z,23.27
2023-03-31T10:12:02.582Z,23.20
2023-03-31T10:14:50.073Z,22.60
2023-03-31T10:17:23.424Z,23.38
2023-03-31T10:19:52.778Z,24.75
2023-03-31T10:22:22.846Z,23.38
2023-03-31T10:24:52.154Z,24.67
2023-03-31T10:27:25.935Z,24.80
2023-03-31T10:29:58.749Z,24.98
2023-03-31T10:32:30.629Z,25.25
2023-03-31T10:35:03.858Z,23.40
2023-03-31T10:37:31.903Z,24.02
2023-03-31T10:40:02.000Z,23.40
2023-03-31T10:42:29.444Z,24.70
2023-03-31T10:45:36.517Z,24.80
2023-03-31T10:48:07.124Z,25.23
2023-03-31T10:50:36.796Z,23.75
2023-03-31T10:53:13.424Z,25.23
2023-03-31T10:56:05.003Z,24.65
2023-03-31T10:59:04.684Z,27.83
2023-03-31T11:01:59.766Z,24.63
2023-03-31T11:04:47.157Z,24.77
2023-03-31T11:07:38.489Z,23.27
2023-03-31T11:10:42.949Z,24.13
2023-03-31T11:13:28.789Z,24.10
2023-03-31T11:16:33.936Z,23.17
2023-03-31T11:19:19.605Z,24.13
2023-03-31T11:22:06.199Z,23.55
2023-03-31T11:24:47.518Z,22.17
2023-03-31T11:27:35.717Z,22.50
2023-03-31T11:30:08.565Z,22.60
2023-03-31T11:33:02.381Z,22.80
2023-03-31T11:35:54.517Z,20.77
2023-03-31T11:38:30.799Z,21.50
2023-03-31T11:41:11.464Z,21.17
2023-03-31T11:43:48.884Z,21.33
2023-03-31T11:46:22.429Z,19.75
2023-03-31T11:48:58.347Z,19.90
2023-03-31T11:51:44.269Z,19.95
2023-03-31T11:54:30.371Z,19.55
2023-03-31T11:57:01.352Z,19.25
2023-03-31T11:59:31.951Z,18.98
2023-03-31T12:02:20.622Z,18.92
2023-03-31T12:04:52.894Z,16.58
2023-03-31T12:07:31.505Z,18.33
2023-03-31T12:10:12.927Z,18.98
2023-03-31T12:12:45.572Z,18.33
2023-03-31T12:15:32.432Z,16.52
2023-03-31T12:18:09.116Z,17.90
2023-03-31T12:20:41.503Z,18.40
2023-03-31T12:23:17.332Z,18.25
2023-03-31T12:25:52.204Z,17.60
2023-03-31T12:28:20.032Z,17.17
2023-03-31T12:30:49.083Z,15.15
2023-03-31T12:33:30.071Z,14.90
2023-03-31T12:36:25.456Z,15.32
2023-03-31T12:39:28.944Z,14.30
2023-03-31T12:42:35.497Z,11.23
2023-03-31T12:45:05.927Z,11.00
2023-03-31T12:47:49.879Z,11.05
2023-03-31T12:50:44.356Z,11.85
2023-03-31T12:53:35.950Z,11.70
2023-03-31T12:56:03.484Z,10.93
2023-03-31T12:58:32.906Z,10.18
2023-03-31T13:01:19.174Z,10.88
2023-03-31T13:03:51.484Z,10.95
2023-03-31T13:06:28.294Z,10.38
2023-03-31T13:09:00.912Z,10.82
2023-03-31T13:11:31.323Z,10.57
2023-03-31T13:14:15.801Z,10.40
2023-03-31T13:16:43.576Z,10.32
2023-03-31T13:19:27.352Z,10.48
2023-03-31T13:21:57.662Z,10.70
2023-03-31T13:24:26.774Z,11.13
2023-03-31T13:26:59.733Z,9.63
2023-03-31T13:29:42.301Z,10.02
2023-03-31T13:32:12.604Z,12.15
2023-03-31T13:34:44.357Z,11.35
2023-03-31T13:37:18.810Z,11.07
2023-03-31T13:39:58.323Z,9.73
2023-03-31T13:42:26.040Z,10.02
2023-03-31T13:45:28.883Z,10.57
2023-03-31T13:48:03.362Z,11.25
2023-03-31T13:51:09.061Z,10.23
2023-03-31T13:54:13.988Z,10.48
2023-03-31T13:57:18.584Z,9.70
2023-03-31T14:00:14.389Z,10.05
2023-03-31T14:02:57.006Z,9.10
2023-03-31T14:05:30.877Z,9.15
2023-03-31T14:08:03.644Z,9.40
2023-03-31T14:10:37.223Z,9.80
2023-03-31T14:13:25.985Z,9.80
2023-03-31T14:15:59.380Z,9.57
2023-03-31T14:18:29.794Z,9.57
2023-03-31T14:21:06.411Z,7.93
2023-03-31T14:23:49.081Z,6.07
2023-03-31T14:26:33.260Z,7.18
2023-03-31T14:29:13.739Z,7.03
2023-03-31T14:31:43.833Z,7.03
2023-03-31T14:34:30.770Z,7.30
2023-03-31T14:37:08.318Z,7.57
2023-03-31T14:39:41.343Z,5.80
2023-03-31T14:42:14.558Z,7.97
2023-03-31T14:44:46.903Z,7.18
2023-03-31T14:47:23.552Z,7.75
2023-03-31T14:50:12.805Z,8.20
2023-03-31T14:52:40.989Z,8.38
2023-03-31T14:55:15.420Z,8.25
2023-03-31T14:57:46.403Z,10.25
2023-03-31T15:00:30.816Z,12.40
2023-03-31T15:03:01.223Z,10.88
2023-03-31T15:05:32.907Z,11.07
2023-03-31T15:08:08.043Z,12.05
2023-03-31T15:10:42.772Z,12.25
2023-03-31T15:13:15.454Z,11.32
2023-03-31T15:15:45.637Z,13.13
2023-03-31T15:18:15.711Z,12.45
2023-03-31T15:20:44.600Z,12.73
2023-03-31T15:23:28.631Z,12.07
2023-03-31T15:26:01.317Z,11.05
2023-03-31T15:28:33.564Z,11.68
2023-03-31T15:31:10.116Z,10.82
2023-03-31T15:33:42.081Z,10.23
2023-03-31T15:36:11.938Z,11.00
2023-03-31T15:38:39.801Z,9.80
2023-03-31T15:41:16.770Z,10.88
2023-03-31T15:44:04.812Z,10.43
2023-03-31T15:46:38.192Z,10.75
2023-03-31T15:49:18.518Z,10.55
2023-03-31T15:51:47.538Z,9.95
2023-03-31T15:54:32.884Z,9.48
2023-03-31T15:57:02.770Z,10.10
2023-03-31T15:59:41.829Z,9.80
2023-03-31T16:02:22.974Z,9.48
2023-03-31T16:04:54.402Z,10.18
2023-03-31T16:07:27.083Z,9.30
2023-03-31T16:10:18.499Z,9.30
2023-03-31T16:13:01.750Z,8.97
2023-03-31T16:15:38.350Z,10.00
2023-03-31T16:18:11.092Z,9.60
2023-03-31T16:21:01.910Z,9.52
2023-03-31T16:23:32.665Z,9.60
2023-03-31T16:26:01.023Z,9.63
2023-03-31T16:28:34.978Z,9.95
2023-03-31T16:31:03.628Z,9.40
2023-03-31T16:33:51.575Z,10.73
2023-03-31T16:36:18.894Z,9.35
2023-03-31T16:38:46.954Z,9.57
2023-03-31T16:41:17.345Z,9.82
2023-03-31T16:43:45.731Z,10.27
2023-03-31T16:46:13.183Z,10.27
2023-03-31T16:48:40.718Z,10.77
2023-03-31T16:51:08.058Z,9.82
2023-03-31T16:53:37.041Z,9.85
2023-03-31T16:56:08.151Z,12.18
2023-03-31T16:58:37.751Z,10.30
2023-03-31T17:01:07.446Z,11.40
2023-03-31T17:03:37.166Z,11.95
2023-03-31T17:06:08.005Z,11.90
2023-03-31T17:08:35.490Z,11.32
2023-03-31T17:11:07.092Z,11.98
2023-03-31T17:13:34.595Z,11.70
2023-03-31T17:16:16.410Z,12.20
2023-03-31T17:18:46.412Z,11.18
2023-03-31T17:21:15.724Z,11.68
2023-03-31T17:23:43.345Z,11.82
2023-03-31T17:26:12.913Z,11.38
2023-03-31T17:28:41.078Z,10.43
2023-03-31T17:31:16.740Z,11.23
2023-03-31T17:33:44.731Z,10.25
2023-03-31T17:36:12.528Z,10.73
2023-03-31T17:38:40.212Z,10.70
2023-03-31T17:41:10.636Z,12.73
2023-03-31T17:43:38.205Z,14.75
2023-03-31T17:46:09.920Z,13.25
2023-03-31T17:48:39.196Z,12.70
2023-03-31T17:51:17.597Z,13.60
2023-03-31T17:53:46.663Z,12.40
2023-03-31T17:56:14.999Z,12.98
2023-03-31T17:58:42.557Z,12.68
2023-03-31T18:01:11.893Z,13.20
2023-03-31T18:03:39.412Z,13.95
2023-03-31T18:06:12.510Z,16.88
2023-03-31T18:08:41.570Z,18.60
2023-03-31T18:11:10.122Z,16.48
2023-03-31T18:13:37.900Z,14.93
2023-03-31T18:16:09.580Z,13.38
2023-03-31T18:18:37.872Z,13.43
2023-03-31T18:21:07.730Z,13.68
2023-03-31T18:23:36.160Z,13.77
2023-03-31T18:26:11.766Z,14.38
2023-03-31T18:28:43.054Z,14.15
2023-03-31T18:31:11.535Z,13.77
2023-03-31T18:33:39.567Z,14.25
2023-03-31T18:36:08.358Z,13.25
2023-03-31T18:38:37.012Z,14.15
2023-03-31T18:41:05.131Z,14.40
2023-03-31T18:43:33.368Z,14.40
2023-03-31T18:46:01.867Z,13.10
2023-03-31T18:48:29.669Z,13.60
2023-03-31T18:51:00.132Z,14.50
2023-03-31T18:53:27.979Z,14.32
2023-03-31T18:55:57.842Z,14.05
2023-03-31T18:58:27.862Z,14.32
2023-03-31T19:00:56.467Z,15.40
2023-03-31T19:03:24.035Z,13.90
2023-03-31T19:05:51.407Z,16.02
2023-03-31T19:08:18.831Z,15.32
2023-03-31T19:10:46.087Z,15.50
2023-03-31T19:13:16.399Z,15.45
2023-03-31T19:15:43.800Z,15.38
2023-03-31T19:18:14.894Z,15.85
2023-03-31T19:20:42.194Z,16.02
2023-03-31T19:23:09.569Z,14.57
2023-03-31T19:25:36.996Z,15.00
2023-03-31T19:28:04.396Z,14.70
2023-03-31T19:30:31.846Z,15.05
2023-03-31T19:33:01.824Z,15.55
2023-03-31T19:35:30.269Z,16.23
2023-03-31T19:37:57.944Z,15.90
2023-03-31T19:40:25.389Z,16.58
2023-03-31T19:42:52.779Z,16.00
2023-03-31T19:45:20.189Z,15.77
2023-03-31T19:47:47.643Z,15.82
2023-03-31T19:50:15.592Z,19.05
2023-03-31T19:52:46.855Z,19.63
2023-03-31T19:55:16.793Z,18.85
2023-03-31T19:57:44.157Z,18.27
2023-03-31T20:00:12.526Z,18.23
2023-03-31T20:02:40.065Z,18.23
2023-03-31T20:05:07.890Z,18.15
2023-03-31T20:07:35.251Z,18.80
2023-03-31T20:10:02.594Z,18.65
2023-03-31T20:12:30.021Z,18.27
2023-03-31T20:14:57.298Z,19.45
2023-03-31T20:17:24.668Z,17.92
2023-03-31T20:19:51.986Z,17.23
2023-03-31T20:22:19.495Z,18.52
2023-03-31T20:24:47.025Z,17.98
2023-03-31T20:27:14.543Z,18.13
2023-03-31T20:29:41.896Z,19.15
2023-03-31T20:32:09.861Z,17.77
2023-03-31T20:34:37.435Z,16.83
2023-03-31T20:37:04.824Z,18.35
2023-03-31T20:39:32.219Z,17.65
2023-03-31T20:41:59.590Z,18.10
2023-03-31T20:44:27.037Z,17.85
2023-03-31T20:46:56.016Z,18.80
2023-03-31T20:49:23.446Z,17.95
2023-03-31T20:51:51.028Z,18.60
2023-03-31T20:54:18.332Z,16.85
2023-03-31T20:56:45.899Z,16.42
2023-03-31T20:59:15.444Z,16.83
2023-03-31T21:01:45.234Z,16.30
2023-03-31T21:04:13.405Z,15.52
2023-03-31T21:06:46.168Z,16.80
2023-03-31T21:09:14.959Z,17.23
2023-03-31T21:11:42.448Z,17.27
2023-03-31T21:14:14.970Z,17.15
2023-03-31T21:16:42.840Z,16.52
2023-03-31T21:19:10.806Z,16.92
2023-03-31T21:21:41.113Z,16.25
2023-03-31T21:24:11.552Z,16.45
2023-03-31T21:26:39.954Z,17.08
2023-03-31T21:29:07.266Z,16.75
2023-03-31T21:31:34.834Z,16.85
2023-03-31T21:34:03.351Z,16.88
2023-03-31T21:36:30.890Z,16.83
2023-03-31T21:38:58.252Z,16.63
2023-03-31T21:41:30.496Z,17.75
2023-03-31T21:44:01.724Z,16.88
2023-03-31T21:48:59.423Z,18.08
2023-03-31T21:51:27.086Z,17.83
2023-03-31T21:53:55.667Z,16.50
2023-03-31T21:56:24.620Z,17.27
2023-03-31T21:58:52.235Z,17.70
2023-03-31T22:01:20.497Z,16.42
2023-03-31T22:03:48.863Z,17.20
2023-03-31T22:06:16.691Z,16.30
2023-03-31T22:08:44.220Z,17.40
2023-03-31T22:11:12.505Z,18.20
2023-03-31T22:13:39.993Z,17.55
2023-03-31T22:16:16.221Z,18.40
2023-03-31T22:18:44.164Z,18.08
2023-03-31T22:21:19.772Z,17.23
2023-03-31T22:23:47.386Z,18.27
2023-03-31T22:26:14.785Z,18.23
2023-03-31T22:28:42.168Z,19.00
2023-03-31T22:31:09.622Z,19.65
2023-03-31T22:33:37.118Z,18.08
2023-03-31T22:36:04.805Z,18.30
2023-03-31T22:38:32.149Z,17.80
2023-03-31T22:40:59.569Z,18.48
2023-03-31T22:43:27.234Z,17.20
2023-03-31T22:45:54.677Z,16.95
2023-03-31T22:48:22.744Z,17.30
2023-03-31T22:50:50.200Z,16.92
2023-03-31T22:53:17.739Z,17.83
2023-03-31T22:55:54.301Z,17.65
2023-03-31T22:58:22.761Z,17.85
2023-03-31T23:00:57.895Z,17.83
2023-03-31T23:03:27.147Z,18.13
2023-03-31T23:05:54.593Z,16.77
2023-03-31T23:08:22.677Z,17.65
2023-03-31T23:10:57.879Z,17.77
2023-03-31T23:13:26.682Z,18.33
2023-03-31T23:15:54.866Z,17.70
2023-03-31T23:18:22.670Z,17.23
2023-03-31T23:20:50.467Z,18.70
2023-03-31T23:23:18.273Z,19.00
2023-03-31T23:25:45.864Z,18.55
2023-03-31T23:28:13.571Z,18.85
2023-03-31T23:30:41.296Z,17.75
2023-03-31T23:33:09.056Z,18.85
2023-03-31T23:35:36.679Z,19.27
2023-03-31T23:38:04.208Z,18.33
2023-03-31T23:40:31.844Z,18.98
2023-03-31T23:42:59.173Z,19.35
2023-03-31T23:45:26.597Z,19.40
2023-03-31T23:47:53.945Z,20.95
2023-03-31T23:50:23.212Z,18.50
2023-03-31T23:52:50.615Z,19.67
2023-03-31T23:55:18.320Z,19.25
2023-03-31T23:57:45.734Z,19.42
